Time;durP1;ratioP1;P1;durP2;ratioP2;P2;SDS_P1;SDS_P2;PMS_P1;PMS_P2;Temp;Humidity;BMP_temperature;BMP_pressure;BME280_temperature;BME280_humidity;BME280_pressure;Samples;Min_cycle;Max_cycle;Signal;HPM_P1;HPM_P2
2022/09/10 00:01:19;;;;;;;3.20;0.80;;;16.00;99.90;;;16.92;94.94;100366.59;5010657;28;21040;-65
2022/09/10 00:03:48;;;;;;;0.40;0.40;;;16.00;99.90;;;16.87;95.51;100363.59;5011561;28;20680;-65
2022/09/10 00:06:17;;;;;;;0.60;0.60;;;15.90;99.90;;;16.83;94.92;100368.38;5010255;28;20725;-65
2022/09/10 00:08:45;;;;;;;0.63;0.63;;;15.90;99.90;;;16.70;96.64;100373.22;5011140;28;21227;-65
2022/09/10 00:11:14;;;;;;;0.60;0.60;;;15.80;99.90;;;16.73;95.43;100370.28;5010050;28;20660;-65
2022/09/10 00:13:41;;;;;;;0.70;0.70;;;15.80;99.90;;;16.80;95.28;100373.13;5010431;28;20688;-64
2022/09/10 00:16:12;;;;;;;0.50;0.50;;;15.80;99.90;;;16.72;95.62;100368.63;5010099;28;21197;-65
2022/09/10 00:18:41;;;;;;;1.00;0.70;;;15.80;99.90;;;16.77;95.19;100368.16;5010082;28;20661;-65
2022/09/10 00:21:12;;;;;;;0.60;0.60;;;15.80;99.90;;;16.75;94.69;100375.41;5011220;28;20610;-65
2022/09/10 00:23:40;;;;;;;2.63;0.50;;;15.80;99.90;;;16.74;94.65;100374.56;5009403;28;20663;-65
2022/09/10 00:26:17;;;;;;;0.50;0.50;;;15.80;99.90;;;16.74;94.67;100364.03;5010328;28;20696;-65
2022/09/10 00:28:45;;;;;;;0.77;0.77;;;15.80;99.90;;;16.70;94.22;100377.66;5002929;28;20646;-65
2022/09/10 00:31:12;;;;;;;0.50;0.50;;;15.70;99.90;;;16.73;94.77;100367.66;4993634;28;20626;-65
2022/09/10 00:33:40;;;;;;;0.90;0.90;;;15.70;99.90;;;16.73;94.79;100372.91;5010821;28;20618;-65
2022/09/10 00:36:17;;;;;;;1.13;0.60;;;15.70;99.90;;;16.87;93.87;100374.97;5009243;28;20671;-65
2022/09/10 00:38:45;;;;;;;2.00;0.80;;;15.70;99.90;;;16.91;93.86;100376.31;5011268;28;20638;-65
2022/09/10 00:41:12;;;;;;;0.50;0.50;;;15.70;99.90;;;16.86;93.69;100372.50;5010526;28;20638;-65
2022/09/10 00:43:56;;;;;;;0.70;0.70;;;15.70;99.90;;;16.99;93.03;100376.34;5011064;28;20677;-64
2022/09/10 00:46:49;;;;;;;0.93;0.77;;;15.70;99.90;;;16.79;93.87;100369.66;5008782;28;21083;-64
2022/09/10 00:49:36;;;;;;;0.90;0.70;;;15.70;99.90;;;16.79;93.81;100372.28;5008541;28;20712;-65
2022/09/10 00:52:04;;;;;;;0.50;0.50;;;15.70;99.90;;;16.62;95.35;100370.53;5009767;28;20614;-65
2022/09/10 00:54:32;;;;;;;0.50;0.50;;;15.60;99.90;;;16.47;96.80;100366.78;5004176;28;21293;-64
2022/09/10 00:57:06;;;;;;;0.50;0.50;;;15.60;99.90;;;16.60;95.77;100367.25;5013975;28;20641;-65
2022/09/10 00:59:34;;;;;;;0.70;0.70;;;15.60;99.90;;;16.55;95.54;100369.50;5012051;28;20687;-64
2022/09/10 01:02:01;;;;;;;0.77;0.57;;;15.60;99.90;;;16.55;95.45;100363.41;5007174;28;20680;-64
2022/09/10 01:04:28;;;;;;;0.53;0.53;;;15.60;99.90;;;16.62;93.96;100367.06;5005480;28;20653;-64
2022/09/10 01:06:55;;;;;;;1.70;0.50;;;15.50;99.90;;;16.70;92.95;100361.84;5027670;28;20612;-65
2022/09/10 01:09:24;;;;;;;3.80;0.60;;;15.60;99.90;;;16.63;92.80;100364.28;5013271;28;20625;-66
2022/09/10 01:12:15;;;;;;;0.77;0.60;;;15.60;99.90;;;16.80;91.64;100368.66;5013107;28;20637;-65
2022/09/10 01:15:14;;;;;;;0.60;0.60;;;15.60;99.90;;;16.84;91.66;100366.56;5012384;28;20636;-65
2022/09/10 01:17:53;;;;;;;0.60;0.60;;;15.70;99.90;;;16.66;92.61;100361.34;5013822;28;20654;-64
2022/09/10 01:20:44;;;;;;;0.90;0.50;;;15.60;99.90;;;16.61;93.25;100363.59;5012800;28;20688;-65
2022/09/10 01:23:36;;;;;;;0.40;0.40;;;15.60;99.90;;;16.64;92.78;100373.00;5012741;28;21187;-64
2022/09/10 01:26:30;;;;;;;0.70;0.53;;;15.60;99.90;;;16.67;92.62;100370.91;5013424;28;20693;-64
2022/09/10 01:29:07;;;;;;;0.80;0.80;;;15.50;99.90;;;16.78;91.94;100370.63;5012709;28;20633;-64
2022/09/10 01:32:01;;;;;;;2.53;0.63;;;15.60;99.90;;;16.82;91.42;100369.34;5011910;28;20617;-65
2022/09/10 01:35:13;;;;;;;10.90;0.70;;;15.60;99.90;;;16.69;92.73;100376.03;5013817;28;20606;-64
2022/09/10 01:37:46;;;;;;;0.50;0.50;;;15.60;99.90;;;16.55;93.62;100371.31;5013311;28;20633;-65
2022/09/10 01:40:16;;;;;;;0.90;0.63;;;15.60;99.90;;;16.65;93.34;100372.84;5010753;28;20578;-65
2022/09/10 01:42:44;;;;;;;0.60;0.53;;;15.60;99.90;;;16.59;93.27;100376.09;5011162;28;21368;-65
2022/09/10 01:45:14;;;;;;;0.70;0.60;;;15.60;99.90;;;16.69;92.97;100378.66;5012507;28;20683;-65
2022/09/10 01:48:28;;;;;;;0.60;0.60;;;15.60;99.90;;;16.65;93.00;100378.13;5012610;28;21143;-64
2022/09/10 01:51:15;;;;;;;0.50;0.50;;;15.60;99.90;;;16.48;94.55;100378.16;5011331;28;20696;-65
2022/09/10 01:54:03;;;;;;;0.93;0.70;;;15.50;99.90;;;16.62;93.72;100380.25;5010342;28;21210;-65
2022/09/10 01:56:46;;;;;;;0.40;0.40;;;15.50;99.90;;;16.53;94.15;100381.16;5011238;28;20630;-65
2022/09/10 01:59:35;;;;;;;0.53;0.53;;;15.50;99.90;;;16.57;94.74;100387.81;5012005;28;20628;-64
2022/09/10 02:02:27;;;;;;;0.60;0.60;;;15.50;99.90;;;16.59;94.23;100385.84;5011434;28;20630;-65
2022/09/10 02:04:56;;;;;;;0.63;0.63;;;15.50;99.90;;;16.59;94.19;100381.38;5011170;28;20613;-65
2022/09/10 02:07:25;;;;;;;0.70;0.70;;;15.50;99.90;;;16.61;94.14;100379.41;5009774;28;21248;-65
2022/09/10 02:09:53;;;;;;;0.77;0.70;;;15.50;99.90;;;16.54;94.61;100378.41;5009736;28;20684;-64
2022/09/10 02:12:21;;;;;;;1.70;0.50;;;15.50;99.90;;;16.67;93.55;100373.56;5010377;28;20628;-65
2022/09/10 02:14:56;;;;;;;0.40;0.40;;;15.50;99.90;;;16.58;93.92;100374.47;5010873;28;21072;-65
2022/09/10 02:17:34;;;;;;;0.50;0.50;;;15.60;99.90;;;16.59;94.49;100367.41;5012995;28;20641;-64
2022/09/10 02:20:05;;;;;;;0.53;0.53;;;15.60;99.90;;;16.63;94.10;100366.91;5010558;28;20687;-65
2022/09/10 02:22:35;;;;;;;0.70;0.70;;;15.60;99.90;;;16.62;94.32;100362.63;5010224;28;20614;-64
2022/09/10 02:25:05;;;;;;;0.53;0.53;;;15.60;99.90;;;16.57;94.54;100364.91;5011207;28;20638;-65
2022/09/10 02:27:32;;;;;;;0.50;0.50;;;15.60;99.90;;;16.54;94.77;100362.59;5012965;28;20637;-65
2022/09/10 02:29:59;;;;;;;0.50;0.50;;;15.50;99.90;;;16.65;93.95;100356.25;5010456;28;21037;-64
2022/09/10 02:32:27;;;;;;;0.60;0.60;;;15.60;99.90;;;16.63;94.09;100361.63;5009928;28;21038;-64
2022/09/10 02:34:54;;;;;;;0.60;0.60;;;15.50;99.90;;;16.56;94.96;100358.00;5011174;28;20638;-65
2022/09/10 02:37:20;;;;;;;1.33;0.80;;;15.50;99.90;;;16.60;94.81;100356.69;5011615;28;20657;-65
2022/09/10 02:39:47;;;;;;;0.60;0.60;;;15.50;99.90;;;16.73;93.31;100361.56;5011723;28;20964;-65
2022/09/10 02:42:15;;;;;;;0.50;0.50;;;15.60;99.90;;;16.79;93.52;100360.91;5010779;28;20661;-65
2022/09/10 02:44:43;;;;;;;1.17;0.60;;;15.60;99.90;;;16.87;92.89;100363.59;5011807;28;21263;-65
2022/09/10 02:47:10;;;;;;;0.97;0.50;;;15.60;99.90;;;16.85;93.10;100361.13;5012185;28;20723;-65
2022/09/10 02:49:37;;;;;;;0.57;0.57;;;15.60;99.90;;;16.57;95.06;100346.47;5011048;28;20634;-64
2022/09/10 02:52:05;;;;;;;4.23;0.67;;;15.60;99.90;;;16.63;94.61;100355.56;5009861;28;21267;-63
2022/09/10 02:54:32;;;;;;;0.63;0.63;;;15.60;99.90;;;16.70;94.12;100360.06;5011062;28;21085;-64
2022/09/10 02:56:59;;;;;;;0.67;0.67;;;15.60;99.90;;;16.63;94.99;100355.56;5010984;28;20641;-64
2022/09/10 02:59:27;;;;;;;0.70;0.60;;;15.60;99.90;;;16.71;94.41;100353.81;5011333;28;20617;-64
2022/09/10 03:01:55;;;;;;;0.50;0.50;;;15.60;99.90;;;16.78;94.21;100357.44;5010786;28;21040;-65
2022/09/10 03:04:22;;;;;;;1.63;0.77;;;15.60;99.90;;;16.88;93.16;100360.00;5010681;28;20638;-65
2022/09/10 03:06:48;;;;;;;0.60;0.60;;;15.60;99.90;;;16.91;93.15;100359.66;5010816;28;20713;-64
2022/09/10 03:09:16;;;;;;;1.40;0.67;;;15.60;99.90;;;17.02;92.98;100356.75;5011210;28;20625;-65
2022/09/10 03:11:43;;;;;;;0.70;0.70;;;15.70;99.90;;;16.98;92.80;100348.34;5011178;28;20637;-64
2022/09/10 03:14:11;;;;;;;0.60;0.53;;;15.80;99.90;;;16.96;92.98;100345.03;5010834;28;21263;-64
2022/09/10 03:16:39;;;;;;;0.70;0.70;;;15.80;99.90;;;16.50;95.87;100350.72;5010443;28;20633;-64
2022/09/10 03:19:06;;;;;;;0.67;0.60;;;15.70;99.90;;;16.75;95.42;100355.16;5009368;28;20669;-66
2022/09/10 03:21:33;;;;;;;1.00;0.80;;;15.70;99.90;;;16.92;93.55;100350.78;5003643;28;20638;-65
2022/09/10 03:24:00;;;;;;;0.83;0.83;;;15.70;99.90;;;16.96;93.29;100347.69;5005060;28;20696;-64
2022/09/10 03:26:30;;;;;;;9.73;0.70;;;15.70;99.90;;;16.84;93.57;100348.13;5002466;28;20704;-64
2022/09/10 03:28:57;;;;;;;0.80;0.80;;;15.70;99.90;;;16.78;94.39;100351.38;5011853;28;20688;-65
2022/09/10 03:31:26;;;;;;;0.90;0.60;;;15.70;99.90;;;16.84;93.86;100356.84;5011275;28;20684;-65
2022/09/10 03:33:53;;;;;;;0.70;0.70;;;15.70;99.90;;;16.96;93.21;100358.22;5011464;28;20672;-66
2022/09/10 03:36:21;;;;;;;0.73;0.60;;;15.70;99.90;;;16.88;93.41;100350.28;5009709;28;21196;-65
2022/09/10 03:38:48;;;;;;;1.83;0.70;;;15.80;99.90;;;16.99;92.85;100357.88;5011447;28;21296;-65
2022/09/10 03:41:16;;;;;;;0.47;0.47;;;15.80;99.90;;;16.94;92.51;100352.28;5010333;28;20653;-65
2022/09/10 03:43:42;;;;;;;0.60;0.60;;;15.80;99.90;;;16.92;92.58;100356.88;5011618;28;20683;-66
2022/09/10 03:46:10;;;;;;;1.47;0.80;;;15.80;99.90;;;17.08;92.55;100356.13;5010227;28;20707;-65
2022/09/10 03:48:38;;;;;;;1.23;0.60;;;15.80;99.90;;;17.12;92.96;100359.28;5010514;28;20643;-65
2022/09/10 03:51:05;;;;;;;0.60;0.60;;;15.90;99.90;;;16.96;93.31;100360.03;4994997;28;20630;-64
2022/09/10 03:53:32;;;;;;;0.60;0.60;;;15.90;99.90;;;17.02;92.87;100365.50;5010772;28;20617;-64
2022/09/10 03:55:59;;;;;;;1.23;0.60;;;15.80;99.90;;;17.08;92.15;100356.94;5010127;28;20629;-64
2022/09/10 03:58:26;;;;;;;1.70;0.70;;;15.90;99.90;;;16.91;93.54;100360.50;5010021;28;20641;-65
2022/09/10 04:00:53;;;;;;;0.80;0.80;;;15.80;99.90;;;16.76;94.25;100356.78;5009569;28;21246;-65
2022/09/10 04:03:21;;;;;;;0.63;0.60;;;15.80;99.90;;;16.76;94.69;100356.78;5010633;28;20626;-62
2022/09/10 04:05:47;;;;;;;0.57;0.57;;;15.80;99.90;;;16.81;94.76;100356.31;5009828;28;20669;-65
2022/09/10 04:08:14;;;;;;;2.10;0.63;;;15.80;99.90;;;16.85;94.61;100355.84;5009465;28;21208;-63
2022/09/10 04:10:43;;;;;;;3.30;0.60;;;15.70;99.90;;;16.76;95.04;100356.78;5011499;28;20609;-65
2022/09/10 04:13:10;;;;;;;0.50;0.50;;;15.70;99.90;;;16.68;95.80;100351.47;5008856;28;21168;-65
2022/09/10 04:15:37;;;;;;;0.47;0.47;;;15.70;99.90;;;16.79;95.83;100348.59;5009438;28;20687;-65
2022/09/10 04:18:05;;;;;;;0.70;0.70;;;15.70;99.90;;;16.68;95.83;100345.38;5009990;28;20638;-65
2022/09/10 04:20:33;;;;;;;1.63;0.70;;;15.70;99.90;;;16.66;96.32;100349.97;5008964;28;20626;-64
2022/09/10 04:23:00;;;;;;;0.60;0.60;;;15.60;99.90;;;16.62;97.18;100348.63;5010484;28;20606;-64
2022/09/10 04:25:27;;;;;;;0.70;0.70;;;15.60;99.90;;;16.71;95.97;100358.25;5013137;28;20707;-64
2022/09/10 04:27:54;;;;;;;1.70;1.00;;;15.60;99.90;;;16.63;97.83;100356.38;5013639;28;21290;-64
2022/09/10 04:30:22;;;;;;;0.70;0.70;;;15.60;99.90;;;16.79;96.99;100363.56;5013709;28;20629;-64
2022/09/10 04:32:49;;;;;;;1.23;0.77;;;15.60;99.90;;;16.75;96.66;100357.78;5010596;28;20618;-62
2022/09/10 04:35:16;;;;;;;0.70;0.70;;;15.60;99.90;;;16.73;95.84;100354.47;5014013;28;20652;-64
2022/09/10 04:37:43;;;;;;;0.60;0.60;;;15.70;99.90;;;16.76;96.18;100355.97;5013581;28;20695;-64
2022/09/10 04:40:10;;;;;;;1.57;0.80;;;15.70;99.90;;;16.70;96.55;100362.69;5013419;28;20817;-64
2022/09/10 04:42:37;;;;;;;2.73;0.83;;;15.60;99.90;;;16.81;96.52;100365.06;5014206;28;20668;-64
2022/09/10 04:45:05;;;;;;;0.50;0.50;;;15.60;99.90;;;16.72;96.33;100366.00;5013143;28;20641;-65
2022/09/10 04:47:33;;;;;;;0.70;0.70;;;15.60;99.90;;;16.46;97.91;100365.13;5014339;28;21097;-65
2022/09/10 04:50:00;;;;;;;0.60;0.60;;;15.60;99.90;;;16.70;97.84;100362.69;5014222;28;20613;-64
2022/09/10 04:52:28;;;;;;;0.97;0.97;;;15.60;99.90;;;16.74;98.05;100369.28;5014525;28;20614;-64
2022/09/10 04:54:54;;;;;;;1.50;1.10;;;15.60;99.90;;;16.76;97.85;100369.97;5014024;28;20682;-64
2022/09/10 04:57:22;;;;;;;0.70;0.70;;;15.60;99.90;;;16.68;98.08;100372.56;5012855;28;20689;-64
2022/09/10 04:59:49;;;;;;;0.83;0.73;;;15.60;99.90;;;16.62;99.54;100375.81;5012637;28;20704;-64
2022/09/10 05:02:16;;;;;;;0.97;0.97;;;15.50;99.90;;;16.61;99.13;100379.41;5011966;28;20637;-64
2022/09/10 05:04:43;;;;;;;1.00;1.00;;;15.50;99.90;;;16.45;100.00;100379.28;5012116;28;21270;-64
2022/09/10 05:07:10;;;;;;;0.90;0.90;;;15.40;99.90;;;16.49;100.00;100377.16;5012989;28;21203;-64
2022/09/10 05:09:37;;;;;;;0.93;0.93;;;15.40;99.90;;;16.48;100.00;100370.25;5011449;28;20630;-65
2022/09/10 05:12:04;;;;;;;0.83;0.83;;;15.40;99.90;;;16.33;100.00;100371.78;5012527;28;20609;-64
2022/09/10 05:14:32;;;;;;;1.20;1.03;;;15.40;99.90;;;16.28;100.00;100361.72;5011849;28;20633;-65
2022/09/10 05:19:42;;;;;;;0.70;0.57;;;15.30;99.90;;;16.03;100.00;100378.28;5029706;28;20718;-62
2022/09/10 05:22:09;;;;;;;1.10;1.00;;;15.20;99.90;;;16.07;100.00;100371.75;5020372;28;20632;-66
2022/09/10 05:24:36;;;;;;;0.80;0.80;;;15.30;99.90;;;16.02;100.00;100374.00;5028808;28;21001;-64
2022/09/10 05:27:03;;;;;;;1.10;1.00;;;15.20;99.90;;;16.18;100.00;100376.78;5032601;28;20652;-65
2022/09/10 05:29:30;;;;;;;1.60;1.20;;;15.30;99.90;;;16.28;100.00;100378.34;5052725;28;20640;-64
2022/09/10 05:31:57;;;;;;;2.03;0.80;;;15.30;99.90;;;16.20;100.00;100378.28;5053216;28;20673;-64
2022/09/10 05:34:26;;;;;;;1.47;0.77;;;15.30;99.90;;;16.22;100.00;100376.31;5051676;28;20620;-63
2022/09/10 05:36:53;;;;;;;9.90;1.20;;;15.30;99.90;;;16.30;100.00;100375.53;5061479;28;21047;-62
2022/09/10 05:39:20;;;;;;;9.90;0.90;;;15.30;99.90;;;16.32;100.00;100381.47;5070171;28;21302;-64
2022/09/10 05:41:47;;;;;;;1.80;1.10;;;15.40;99.90;;;16.40;100.00;100381.53;5072180;28;20839;-64
2022/09/10 05:44:16;;;;;;;1.03;1.03;;;15.40;99.90;;;16.53;100.00;100382.00;5060548;28;20681;-63
2022/09/10 05:46:43;;;;;;;0.67;0.67;;;15.40;99.90;;;16.54;100.00;100378.41;5052208;28;20709;-63
2022/09/10 05:49:11;;;;;;;1.10;0.70;;;15.40;99.90;;;16.38;100.00;100378.22;5041666;28;20671;-63
2022/09/10 05:51:38;;;;;;;0.63;0.63;;;15.50;99.90;;;16.37;100.00;100373.97;5032949;28;21077;-63
2022/09/10 05:54:05;;;;;;;0.83;0.83;;;15.40;99.90;;;16.25;100.00;100375.16;5032369;28;20613;-65
2022/09/10 05:56:33;;;;;;;0.70;0.70;;;15.30;99.90;;;16.30;100.00;100380.81;5042065;28;21257;-65
2022/09/10 05:59:01;;;;;;;1.13;1.03;;;15.30;99.90;;;16.43;100.00;100383.03;5053152;28;20659;-64
2022/09/10 06:01:30;;;;;;;2.97;0.90;;;15.30;99.90;;;16.31;100.00;100387.75;5052441;28;20624;-65
2022/09/10 06:03:57;;;;;;;1.00;1.00;;;15.30;99.90;;;16.23;100.00;100385.03;5053086;28;21045;-64
2022/09/10 06:06:26;;;;;;;0.87;0.70;;;15.30;99.90;;;16.29;100.00;100390.50;5040804;28;20668;-64
2022/09/10 06:08:54;;;;;;;0.70;0.60;;;15.30;99.90;;;16.39;100.00;100384.34;5033622;28;20641;-64
2022/09/10 06:11:22;;;;;;;0.80;0.80;;;15.30;99.90;;;16.43;100.00;100385.69;5052172;28;20619;-64
2022/09/10 06:13:49;;;;;;;1.10;1.07;;;15.30;99.90;;;16.42;100.00;100398.00;5051505;28;20666;-65
2022/09/10 06:16:17;;;;;;;1.07;0.93;;;15.40;99.90;;;16.56;100.00;100399.31;5052725;28;20622;-64
2022/09/10 06:18:47;;;;;;;0.83;0.80;;;15.40;99.90;;;16.53;100.00;100408.34;5051856;28;20666;-64
2022/09/10 06:21:17;;;;;;;0.63;0.63;;;15.40;99.90;;;16.52;100.00;100409.34;5052077;28;21039;-65
2022/09/10 06:23:45;;;;;;;0.43;0.43;;;15.40;99.90;;;16.43;100.00;100402.31;5052256;28;20631;-66
2022/09/10 06:26:16;;;;;;;1.20;1.20;;;15.40;99.90;;;16.45;100.00;100407.41;5051080;28;20647;-65
2022/09/10 06:28:48;;;;;;;1.17;1.07;;;15.40;99.90;;;16.46;100.00;100412.53;5051189;28;20989;-64
2022/09/10 06:31:19;;;;;;;1.37;1.30;;;15.40;99.90;;;16.59;100.00;100410.34;5066946;28;20620;-64
2022/09/10 06:33:47;;;;;;;1.00;0.70;;;15.50;99.90;;;16.48;100.00;100413.22;5050416;28;20612;-65
2022/09/10 06:36:14;;;;;;;1.83;1.00;;;15.50;99.90;;;16.48;100.00;100415.03;5051796;28;21172;-66
2022/09/10 06:38:43;;;;;;;1.90;0.80;;;15.50;99.90;;;16.61;100.00;100416.28;5071220;28;20631;-65
2022/09/10 06:41:14;;;;;;;1.43;1.03;;;15.50;99.90;;;16.54;100.00;100414.44;5032024;28;20635;-66
2022/09/10 06:43:42;;;;;;;1.00;1.00;;;15.50;99.90;;;16.61;100.00;100415.50;5030535;28;20662;-65
2022/09/10 06:46:15;;;;;;;0.70;0.70;;;15.60;99.90;;;16.70;100.00;100410.09;5031342;28;20617;-65
2022/09/10 06:49:04;;;;;;;3.50;0.87;;;15.60;99.90;;;16.72;100.00;100416.03;5031011;28;20702;-64
2022/09/10 06:51:32;;;;;;;0.97;0.97;;;15.60;99.90;;;16.91;99.76;100421.09;5038395;28;20654;-65
2022/09/10 06:54:00;;;;;;;0.80;0.80;;;15.70;99.90;;;17.05;97.96;100419.72;5069880;28;20626;-64
2022/09/10 06:56:26;;;;;;;1.37;1.00;;;15.90;99.90;;;17.25;97.04;100415.84;5062391;28;20689;-64
2022/09/10 06:58:56;;;;;;;1.60;0.87;;;16.00;99.90;;;17.26;96.26;100421.94;5051163;28;20694;-65
2022/09/10 07:01:28;;;;;;;1.60;1.20;;;16.10;99.90;;;17.04;97.39;100426.78;5048936;28;20607;-64
2022/09/10 07:03:57;;;;;;;0.93;0.90;;;16.00;99.90;;;17.29;96.48;100432.19;5032191;28;20609;-66
2022/09/10 07:06:26;;;;;;;0.80;0.80;;;16.10;99.90;;;17.41;95.35;100430.91;5031352;28;20620;-66
2022/09/10 07:08:57;;;;;;;1.30;1.20;;;16.20;99.90;;;17.46;94.69;100433.91;5030528;28;21223;-65
2022/09/10 07:11:27;;;;;;;1.30;1.20;;;16.20;99.90;;;17.33;95.38;100437.00;5030006;28;20621;-66
2022/09/10 07:13:54;;;;;;;1.00;1.00;;;16.20;99.90;;;17.34;95.73;100435.16;5030576;28;20617;-66
2022/09/10 07:16:24;;;;;;;1.23;1.10;;;16.10;99.90;;;17.40;94.51;100438.00;5031173;28;20643;-65
2022/09/10 07:18:55;;;;;;;0.83;0.83;;;16.20;99.90;;;17.63;93.69;100435.66;5030648;28;20652;-66
2022/09/10 07:21:26;;;;;;;7.47;1.60;;;16.30;99.90;;;17.64;93.25;100440.75;5039081;28;20631;-65
2022/09/10 07:24:00;;;;;;;1.17;1.17;;;16.40;99.90;;;17.73;92.80;100436.34;5050448;28;20648;-66
2022/09/10 07:26:27;;;;;;;4.07;1.10;;;16.50;99.90;;;17.67;93.25;100442.25;5045383;28;20665;-65
2022/09/10 07:28:55;;;;;;;2.93;1.40;;;16.40;99.90;;;17.55;93.86;100443.53;5031218;28;20637;-64
2022/09/10 07:31:32;;;;;;;0.87;0.87;;;16.40;99.90;;;17.41;93.71;100441.47;5030006;28;21036;-63
2022/09/10 07:34:05;;;;;;;0.80;0.80;;;16.30;99.90;;;17.30;95.83;100449.66;5029948;28;20625;-64
2022/09/10 07:36:32;;;;;;;1.30;1.20;;;16.20;99.90;;;17.21;96.78;100455.84;5050031;28;20683;-65
2022/09/10 07:39:02;;;;;;;1.00;0.80;;;16.20;99.90;;;17.41;95.84;100452.00;5050134;28;20631;-65
2022/09/10 07:41:32;;;;;;;1.13;0.90;;;16.20;99.90;;;17.39;95.50;100456.63;5049825;28;20631;-65
2022/09/10 07:43:59;;;;;;;1.13;1.07;;;16.30;99.90;;;17.16;97.19;100458.16;5046957;28;20773;-65
2022/09/10 07:46:27;;;;;;;2.43;0.90;;;16.20;99.90;;;17.37;96.23;100458.59;5054702;28;20641;-66
2022/09/10 07:48:56;;;;;;;1.03;1.03;;;16.20;99.90;;;17.63;94.80;100465.47;5065495;28;21259;-66
2022/09/10 07:51:28;;;;;;;1.30;1.20;;;16.40;99.90;;;17.89;92.98;100462.75;5047917;28;20624;-65
2022/09/10 07:53:57;;;;;;;2.50;0.93;;;16.50;99.90;;;17.99;92.59;100462.63;5048957;28;21262;-65
2022/09/10 07:56:25;;;;;;;0.80;0.80;;;16.60;99.90;;;17.99;92.15;100471.38;5050490;28;20612;-66
2022/09/10 07:58:55;;;;;;;1.20;1.10;;;16.70;99.90;;;17.96;92.61;100463.78;5054480;28;20644;-64
2022/09/10 08:01:22;;;;;;;0.83;0.83;;;16.70;99.90;;;17.98;92.30;100467.09;5053216;28;20629;-65
2022/09/10 08:03:49;;;;;;;1.10;1.10;;;16.70;99.90;;;17.99;91.55;100463.47;5066832;28;20607;-65
2022/09/10 08:06:18;;;;;;;1.60;1.50;;;16.80;99.90;;;17.96;92.64;100469.06;5071577;28;20606;-67
2022/09/10 08:08:45;;;;;;;2.93;0.97;;;16.70;99.90;;;18.15;91.08;100462.66;5054133;28;20802;-63
2022/09/10 08:11:17;;;;;;;1.07;1.07;;;16.90;99.90;;;18.39;90.39;100466.16;5058572;28;20691;-64
2022/09/10 08:13:50;;;;;;;1.20;1.10;;;17.00;99.90;;;18.20;89.85;100466.47;5073640;28;20618;-63
2022/09/10 08:16:20;;;;;;;0.70;0.70;;;17.10;99.90;;;18.25;89.84;100469.44;5052928;28;20695;-65
2022/09/10 08:18:48;;;;;;;1.30;1.20;;;17.10;99.90;;;18.60;87.93;100476.28;5036389;28;20702;-65
2022/09/10 08:21:17;;;;;;;2.90;1.10;;;17.30;99.90;;;18.41;88.59;100468.63;5053913;28;20946;-66
2022/09/10 08:23:49;;;;;;;0.93;0.93;;;17.20;99.90;;;18.66;86.80;100477.41;5053115;28;21166;-65
2022/09/10 08:26:17;;;;;;;2.13;1.70;;;17.30;99.90;;;18.85;85.74;100477.91;5033133;28;21205;-65
2022/09/10 08:28:46;;;;;;;3.70;1.40;;;17.40;99.90;;;18.95;84.97;100480.38;5043918;28;20675;-64
2022/09/10 08:31:13;;;;;;;2.17;1.37;;;17.50;99.90;;;19.04;83.96;100479.34;5059767;28;20615;-64
2022/09/10 08:33:39;;;;;;;2.97;1.73;;;17.60;99.90;;;19.15;83.39;100485.13;5045537;28;20616;-66
2022/09/10 08:36:12;;;;;;;1.77;1.40;;;17.70;99.90;;;19.43;82.10;100493.50;5044082;28;20612;-64
2022/09/10 08:38:40;;;;;;;2.60;1.17;;;17.90;99.90;;;19.33;82.86;100487.56;5038448;28;21300;-65
2022/09/10 08:41:18;;;;;;;6.43;1.50;;;17.90;99.90;;;19.86;80.17;100494.84;5057668;28;20620;-67
2022/09/10 08:44:27;;;;;;;1.57;1.47;;;18.20;99.90;;;19.85;78.77;100493.16;5045387;28;20632;-65
2022/09/10 08:46:59;;;;;;;1.50;1.40;;;18.30;99.90;;;20.01;78.16;100499.22;5050674;28;21079;-65
2022/09/10 08:49:53;;;;;;;1.27;1.27;;;18.50;99.90;;;20.22;76.76;100500.44;5054114;28;20636;-65
2022/09/10 08:52:28;;;;;;;5.47;1.30;;;18.60;99.90;;;20.36;76.45;100502.38;5040612;28;20633;-65
2022/09/10 08:55:16;;;;;;;1.70;1.10;;;18.70;99.90;;;20.37;75.38;100499.53;5032195;28;20624;-65
2022/09/10 08:58:05;;;;;;;1.30;1.20;;;18.80;99.90;;;20.36;74.72;100502.38;5032406;28;20653;-66
2022/09/10 09:00:38;;;;;;;2.70;1.27;;;18.80;99.90;;;20.44;74.90;100503.13;5032091;28;20616;-66
2022/09/10 09:03:14;;;;;;;2.03;1.10;;;18.80;99.90;;;20.40;75.38;100498.34;5032444;28;20636;-64
2022/09/10 09:05:58;;;;;;;2.27;1.50;;;18.90;99.90;;;20.21;75.41;100507.56;5048077;28;21005;-65
2022/09/10 09:08:30;;;;;;;1.53;1.40;;;18.80;99.90;;;20.29;75.44;100507.53;5031910;28;20695;-64
2022/09/10 09:11:27;;;;;;;1.57;1.07;;;18.80;99.90;;;20.33;75.18;100498.22;5032502;28;20701;-65
2022/09/10 09:14:40;;;;;;;3.83;1.30;;;18.80;99.90;;;20.31;72.53;100505.53;5047800;28;20624;-65
2022/09/10 09:18:09;;;;;;;4.70;1.50;;;18.80;99.90;;;20.33;72.03;100495.59;5033763;28;20671;-64
2022/09/10 09:20:47;;;;;;;1.97;1.67;;;18.80;99.90;;;20.49;71.24;100503.41;5031839;28;21187;-66
2022/09/10 09:23:42;;;;;;;7.47;1.70;;;18.90;99.90;;;20.65;70.25;100497.16;5047196;28;21009;-67
2022/09/10 09:26:35;;;;;;;2.20;1.40;;;19.00;99.90;;;20.52;70.10;100502.22;5071061;28;20686;-65
2022/09/10 09:29:19;;;;;;;3.57;1.43;;;19.00;99.90;;;20.74;69.67;100504.06;5057305;28;20671;-66
2022/09/10 09:31:51;;;;;;;3.13;1.67;;;19.20;99.90;;;20.75;69.61;100505.69;5059942;28;20618;-67
2022/09/10 09:34:32;;;;;;;4.57;1.87;;;19.20;99.90;;;21.03;69.24;100511.28;5046718;28;21037;-66
2022/09/10 09:37:03;;;;;;;1.40;1.30;;;19.40;99.90;;;21.01;66.43;100507.94;5032034;28;20616;-68
2022/09/10 09:40:01;;;;;;;1.40;1.40;;;19.40;99.90;;;20.93;67.13;100503.56;5044654;28;20656;-68
2022/09/10 09:42:46;;;;;;;1.20;1.10;;;19.40;99.90;;;20.84;67.48;100502.81;5037544;28;20655;-67
2022/09/10 09:45:42;;;;;;;2.10;1.40;;;19.40;99.90;;;20.96;67.78;100505.81;5036520;28;20631;-68
2022/09/10 09:48:14;;;;;;;1.37;1.27;;;19.40;99.90;;;21.01;67.10;100497.34;5054104;28;20675;-67
2022/09/10 09:50:46;;;;;;;1.53;1.43;;;19.50;99.90;;;21.07;67.78;100507.25;5056623;28;20653;-68
2022/09/10 09:53:28;;;;;;;1.30;1.20;;;19.50;99.90;;;20.98;66.56;100502.97;5055558;28;20702;-68
2022/09/10 09:55:59;;;;;;;2.07;1.00;;;19.40;99.90;;;20.82;66.93;100493.38;5035810;28;20635;-69
2022/09/10 09:58:30;;;;;;;1.67;1.33;;;19.40;99.90;;;20.92;67.19;100501.88;5032804;28;20691;-68
2022/09/10 10:01:03;;;;;;;1.30;1.20;;;19.40;99.90;;;21.11;67.00;100495.28;5031489;28;20723;-68
2022/09/10 10:03:57;;;;;;;1.37;1.27;;;19.50;99.90;;;20.98;67.03;100500.34;5036255;28;20628;-67
2022/09/10 10:06:29;;;;;;;1.10;1.10;;;19.50;99.90;;;21.10;66.89;100491.81;5051896;28;20615;-66
2022/09/10 10:09:04;;;;;;;2.00;1.70;;;19.50;99.90;;;21.11;67.94;100506.72;5052449;28;20720;-65
2022/09/10 10:11:51;;;;;;;2.10;1.27;;;19.50;99.90;;;20.88;69.13;100500.59;5031085;28;21166;-65
2022/09/10 10:14:29;;;;;;;4.03;1.77;;;19.30;99.90;;;20.82;69.87;100494.19;5032277;28;20616;-66
2022/09/10 10:16:59;;;;;;;1.80;1.70;;;19.30;99.90;;;20.83;71.18;100489.69;5032358;28;20686;-66
2022/09/10 10:19:33;;;;;;;1.70;1.60;;;19.20;99.90;;;20.82;71.85;100490.72;5032611;28;21305;-68
2022/09/10 10:22:17;;;;;;;1.50;1.40;;;19.20;99.90;;;20.86;71.85;100494.66;5041786;28;20699;-68
2022/09/10 10:24:47;;;;;;;3.27;1.50;;;19.20;99.90;;;20.75;71.82;100481.81;5042746;28;20612;-67
2022/09/10 10:27:40;;;;;;;1.90;1.80;;;19.20;99.90;;;20.80;73.45;100488.25;5043900;28;20677;-69
2022/09/10 10:30:10;;;;;;;2.70;1.80;;;19.20;99.90;;;20.80;73.04;100482.94;5047836;28;20794;-67
2022/09/10 10:32:55;;;;;;;3.20;1.60;;;19.20;99.90;;;20.75;73.17;100481.81;5044036;28;21036;-67
2022/09/10 10:35:55;;;;;;;2.10;1.67;;;19.20;99.90;;;20.53;75.00;100469.44;5043522;28;20620;-68